N174K KARR-KARR
Flight info
| Callsign | N174K |
|---|---|
| Flight time | N/A |
| Altitude | 8500 |
| Route | WEST DEPARTURE/PATTERN |
| Aircraft | C172/L-V/N |
Departure
| Time | 2026-05-04 14:56 |
|---|---|
| Airport | Aurora Municipal Airport (KARR) |
Arrival
| Time | N/A |
|---|---|
| Airport | Aurora Municipal Airport (KARR) |
| Time | Latitude | Longitude | Altitude | Speed | Heading |
|---|---|---|---|---|---|
| 2026-05-04 14:44 | 41.76840 | -88.46652 | 707 ft | 0 kts | 141° |
| 2026-05-04 14:50 | 41.76850 | -88.46662 | 703 ft | 2 kts | 143° |
| 2026-05-04 14:50 | 41.76859 | -88.46672 | 705 ft | 0 kts | 142° |
| 2026-05-04 14:52 | 41.76859 | -88.46648 | 706 ft | 5 kts | 55° |
| 2026-05-04 14:52 | 41.76862 | -88.46614 | 703 ft | 7 kts | 90° |
| 2026-05-04 14:52 | 41.76863 | -88.46528 | 708 ft | 10 kts | 90° |
| 2026-05-04 14:52 | 41.76863 | -88.46392 | 710 ft | 17 kts | 91° |
| 2026-05-04 14:53 | 41.76895 | -88.46308 | 710 ft | 0 kts | 357° |
| 2026-05-04 14:53 | 41.76906 | -88.46308 | 710 ft | 5 kts | 1° |
| 2026-05-04 14:53 | 41.76931 | -88.46283 | 710 ft | 6 kts | 91° |
| 2026-05-04 14:53 | 41.76932 | -88.46209 | 711 ft | 10 kts | 90° |
| 2026-05-04 14:54 | 41.76970 | -88.46163 | 711 ft | 9 kts | 360° |
| 2026-05-04 14:54 | 41.77036 | -88.46176 | 712 ft | 11 kts | 310° |
| 2026-05-04 14:54 | 41.77039 | -88.46298 | 710 ft | 15 kts | 266° |
| 2026-05-04 14:54 | 41.77038 | -88.46525 | 709 ft | 44 kts | 269° |
| 2026-05-04 14:55 | 41.77033 | -88.47131 | 707 ft | 83 kts | 268° |
| 2026-05-04 14:55 | 41.77035 | -88.47996 | 751 ft | 99 kts | 269° |
| 2026-05-04 14:55 | 41.76990 | -88.48879 | 996 ft | 91 kts | 259° |
| 2026-05-04 14:55 | 41.76911 | -88.49752 | 1116 ft | 96 kts | 257° |
| 2026-05-04 14:56 | 41.76619 | -88.50505 | 1308 ft | 94 kts | 213° |
| 2026-05-04 14:56 | 41.76028 | -88.50249 | 1456 ft | 116 kts | 123° |
| 2026-05-04 14:56 | 41.76006 | -88.49167 | 1614 ft | 117 kts | 86° |
| 2026-05-04 14:56 | 41.76084 | -88.48059 | 1609 ft | 121 kts | 91° |
| 2026-05-04 14:57 | 41.76130 | -88.46948 | 1637 ft | 119 kts | 93° |
| 2026-05-04 14:57 | 41.76177 | -88.45832 | 1623 ft | 118 kts | 93° |
| 2026-05-04 14:57 | 41.76204 | -88.44752 | 1581 ft | 116 kts | 92° |
| 2026-05-04 14:57 | 41.76240 | -88.43678 | 1426 ft | 112 kts | 81° |
| 2026-05-04 14:58 | 41.76804 | -88.43127 | 1336 ft | 104 kts | 353° |
| 2026-05-04 14:58 | 41.77280 | -88.43632 | 1119 ft | 83 kts | 264° |
| 2026-05-04 14:58 | 41.77148 | -88.44352 | 955 ft | 83 kts | 251° |
| 2026-05-04 14:58 | 41.77071 | -88.45141 | 859 ft | 89 kts | 262° |
| 2026-05-04 14:59 | 41.77051 | -88.45965 | 754 ft | 90 kts | 264° |
| 2026-05-04 14:59 | 41.77034 | -88.46791 | 707 ft | 85 kts | 261° |
| 2026-05-04 14:59 | 41.77022 | -88.48271 | 709 ft | 85 kts | 267° |
| 2026-05-04 15:00 | 41.77025 | -88.49094 | 891 ft | 86 kts | 264° |
| 2026-05-04 15:00 | 41.76995 | -88.49884 | 1090 ft | 85 kts | 270° |
| 2026-05-04 15:00 | 41.76749 | -88.50302 | 1340 ft | 74 kts | 159° |
| 2026-05-04 15:01 | 41.76587 | -88.48452 | 1340 ft | 122 kts | 93° |
| 2026-05-04 15:01 | 41.76589 | -88.47295 | 1353 ft | 129 kts | 96° |
| 2026-05-04 15:01 | 41.76601 | -88.46090 | 1304 ft | 124 kts | 94° |
| 2026-05-04 15:01 | 41.76576 | -88.45002 | 1063 ft | 109 kts | 99° |
| 2026-05-04 15:02 | 41.76813 | -88.44300 | 1094 ft | 79 kts | 351° |
| 2026-05-04 15:02 | 41.77076 | -88.44873 | 917 ft | 84 kts | 264° |
| 2026-05-04 15:02 | 41.77053 | -88.45666 | 798 ft | 85 kts | 262° |
| 2026-05-04 15:02 | 41.77045 | -88.46451 | 717 ft | 82 kts | 264° |
| 2026-05-04 15:03 | 41.77032 | -88.47113 | 707 ft | 59 kts | 270° |
| 2026-05-04 15:03 | 41.77027 | -88.47752 | 710 ft | 82 kts | 273° |
| 2026-05-04 15:03 | 41.77035 | -88.48072 | 745 ft | 88 kts | 267° |